Time;durP1;ratioP1;P1;durP2;ratioP2;P2;SDS_P1;SDS_P2;PMS_P1;PMS_P2;Temp;Humidity;BMP_temperature;BMP_pressure;BME280_temperature;BME280_humidity;BME280_pressure;Samples;Min_cycle;Max_cycle;Signal;HPM_P1;HPM_P2
2022/03/17 00:00:11;;;;;;;25.00;13.70;;;12.20;99.90;;;12.63;63.05;101222.91;5041692;28;20654;-71
2022/03/17 00:02:38;;;;;;;25.50;12.77;;;12.30;99.90;;;12.64;63.13;101230.66;5025720;28;20644;-71
2022/03/17 00:05:10;;;;;;;19.87;10.43;;;12.30;99.90;;;12.61;62.24;101209.06;5029315;28;20632;-73
2022/03/17 00:07:42;;;;;;;18.23;9.60;;;12.30;99.90;;;12.66;62.27;101220.91;5015339;28;20668;-71
2022/03/17 00:10:14;;;;;;;11.07;6.70;;;12.30;99.90;;;12.65;61.28;101208.72;5015217;28;20640;-71
2022/03/17 00:12:45;;;;;;;10.10;6.63;;;12.40;99.90;;;12.61;61.88;101224.75;5015695;28;20711;-71
2022/03/17 00:15:13;;;;;;;9.27;5.30;;;12.40;99.90;;;12.62;61.54;101211.59;5034332;28;20604;-72
2022/03/17 00:17:41;;;;;;;23.97;11.20;;;12.30;99.90;;;12.64;61.32;101225.41;5034388;28;20612;-71
2022/03/17 00:20:10;;;;;;;8.73;5.50;;;12.30;99.90;;;12.62;61.42;101226.47;5039122;28;21227;-72
2022/03/17 00:22:38;;;;;;;8.77;5.90;;;12.40;99.90;;;12.63;60.70;101221.09;5035178;28;20703;-72
2022/03/17 00:25:07;;;;;;;13.67;8.10;;;12.40;99.90;;;12.70;60.19;101231.97;5034572;28;21457;-71
2022/03/17 00:27:34;;;;;;;13.27;6.47;;;12.40;99.90;;;12.70;59.96;101224.97;5036015;28;20754;-72
2022/03/17 00:30:03;;;;;;;19.97;9.40;;;12.40;99.90;;;12.75;59.37;101220.25;5053195;28;21240;-72
2022/03/17 00:32:29;;;;;;;21.40;11.73;;;12.40;99.90;;;12.76;59.43;101229.75;5036146;28;20707;-72
2022/03/17 00:37:41;;;;;;;8.47;5.40;;;12.50;99.90;;;12.71;59.82;101221.41;5032409;28;20639;-71
2022/03/17 00:40:09;;;;;;;10.57;6.37;;;12.50;99.90;;;12.69;60.12;101222.47;5033246;28;20652;-71
2022/03/17 00:42:36;;;;;;;15.70;8.63;;;12.40;99.90;;;12.70;59.87;101231.97;5015114;28;20628;-72
2022/03/17 00:45:03;;;;;;;9.47;5.17;;;12.40;99.90;;;12.74;59.25;101225.56;5032797;28;20621;-72
2022/03/17 00:47:30;;;;;;;18.93;10.10;;;12.40;99.90;;;12.70;60.13;101224.13;5032629;28;20719;-71
2022/03/17 00:49:57;;;;;;;17.93;7.37;;;12.40;99.90;;;12.73;59.11;101219.53;5015664;28;20694;-71
2022/03/17 00:52:24;;;;;;;6.40;4.80;;;12.40;99.90;;;12.78;59.45;101222.63;5032360;28;20709;-72
2022/03/17 00:54:51;;;;;;;10.97;6.70;;;12.50;99.90;;;12.73;59.86;101223.91;5034676;28;20619;-71
2022/03/17 00:57:18;;;;;;;12.70;7.70;;;12.50;99.90;;;12.69;59.38;101207.56;5051518;28;20707;-71
2022/03/17 00:59:45;;;;;;;16.83;9.97;;;12.50;99.90;;;12.69;59.43;101223.28;5046537;28;20656;-71
2022/03/17 01:02:12;;;;;;;13.00;8.07;;;12.50;99.90;;;12.78;59.30;101219.16;5006244;28;20976;-71
2022/03/17 01:04:39;;;;;;;11.93;6.00;;;12.50;99.90;;;12.79;59.41;101213.84;5016895;28;20664;-71
2022/03/17 01:07:06;;;;;;;18.90;10.27;;;12.50;99.90;;;12.80;59.02;101220.72;5051525;28;20992;-71
2022/03/17 01:09:34;;;;;;;14.80;8.27;;;12.50;99.90;;;12.69;59.13;101225.91;5016791;28;20671;-70
2022/03/17 01:12:02;;;;;;;13.37;7.30;;;12.40;99.90;;;12.72;59.64;101223.06;5033103;28;20642;-71
2022/03/17 01:14:29;;;;;;;19.43;9.60;;;12.40;99.90;;;12.69;59.88;101222.47;5033538;28;20634;-72
2022/03/17 01:16:56;;;;;;;11.87;6.97;;;12.40;99.90;;;12.77;59.00;101233.22;5039723;28;20683;-71
2022/03/17 01:19:23;;;;;;;12.70;7.20;;;12.40;99.90;;;12.80;59.17;101227.78;5017169;28;20656;-72
2022/03/17 01:21:50;;;;;;;8.20;4.77;;;12.50;99.90;;;12.79;59.28;101228.72;5043563;28;20815;-71
2022/03/17 01:24:18;;;;;;;16.00;9.27;;;12.50;99.90;;;12.71;59.51;101228.44;5030964;28;20631;-71
2022/03/17 01:26:45;;;;;;;20.97;12.37;;;12.40;99.90;;;12.75;59.85;101222.03;5037713;28;20628;-71
2022/03/17 01:29:15;;;;;;;22.00;13.10;;;12.40;99.90;;;12.65;60.76;101232.28;5030554;28;20687;-71
2022/03/17 01:31:43;;;;;;;21.33;11.40;;;12.30;99.90;;;12.55;61.58;101226.03;5015747;28;21007;-72
2022/03/17 01:34:10;;;;;;;27.37;15.47;;;12.20;99.90;;;12.58;61.71;101219.75;5008481;28;20628;-71
2022/03/17 01:36:37;;;;;;;24.17;14.00;;;12.20;99.90;;;12.44;62.08;101226.81;5032850;28;20621;-72
2022/03/17 01:39:05;;;;;;;26.17;13.67;;;12.10;99.90;;;12.41;61.98;101226.19;5030021;28;20654;-71
2022/03/17 01:41:34;;;;;;;25.90;15.03;;;12.00;99.90;;;12.37;62.16;101222.94;5026145;28;20662;-70
2022/03/17 01:44:02;;;;;;;25.10;13.97;;;12.00;99.90;;;12.36;61.77;101223.06;5029946;28;20624;-71
2022/03/17 01:46:29;;;;;;;27.27;15.17;;;12.00;99.90;;;12.42;62.83;101217.38;5037719;28;20636;-73
2022/03/17 01:48:56;;;;;;;24.80;11.57;;;12.10;99.90;;;12.32;61.98;101227.66;5021378;28;20671;-71
2022/03/17 01:51:23;;;;;;;25.10;14.07;;;12.00;99.90;;;12.29;62.55;101219.19;5042753;28;20727;-72
2022/03/17 01:53:50;;;;;;;21.07;12.60;;;12.00;99.90;;;12.29;62.77;101217.41;5051106;28;20612;-71
2022/03/17 01:56:18;;;;;;;24.47;13.30;;;11.90;99.90;;;12.30;61.29;101216.47;5015014;28;20663;-72
2022/03/17 01:58:45;;;;;;;21.00;11.93;;;12.00;99.90;;;12.35;61.11;101227.44;5032649;28;20646;-71
2022/03/17 02:01:13;;;;;;;25.27;14.60;;;12.00;99.90;;;12.35;62.05;101214.34;5001280;28;20731;-71
2022/03/17 02:03:43;;;;;;;33.20;16.77;;;12.00;99.90;;;12.28;63.72;101218.38;5012885;28;20620;-72
2022/03/17 02:06:10;;;;;;;21.57;11.00;;;12.00;99.90;;;12.13;64.21;101224.66;5036649;28;20620;-72
2022/03/17 02:08:37;;;;;;;24.00;12.83;;;11.80;99.90;;;12.02;64.16;101231.56;5017439;28;20771;-71
2022/03/17 02:13:51;;;;;;;23.10;13.40;;;11.80;99.90;;;11.97;65.69;101226.63;5017382;28;20675;-72
2022/03/17 02:16:18;;;;;;;26.27;15.33;;;11.70;99.90;;;11.92;64.99;101227.91;5028601;28;20632;-71
2022/03/17 02:18:46;;;;;;;27.90;14.80;;;11.60;99.90;;;11.91;65.48;101234.06;5044449;28;20699;-71
2022/03/17 02:21:14;;;;;;;27.70;16.03;;;11.50;99.90;;;11.85;66.72;101230.09;5032358;28;20604;-71
2022/03/17 02:26:30;;;;;;;24.90;15.50;;;11.40;99.90;;;11.78;68.59;101243.66;5005493;28;20650;-72
2022/03/17 02:28:59;;;;;;;28.90;14.50;;;11.40;99.90;;;11.75;68.09;101239.50;5049171;28;20664;-71
2022/03/17 02:31:26;;;;;;;27.00;15.30;;;11.40;99.90;;;11.73;68.00;101232.69;5007374;28;20660;-71
2022/03/17 02:33:53;;;;;;;29.57;17.17;;;11.40;99.90;;;11.68;68.56;101243.47;5014302;28;20663;-72
2022/03/17 02:36:20;;;;;;;36.20;17.47;;;11.40;99.90;;;11.60;68.73;101243.09;5039106;28;20621;-72
2022/03/17 02:38:47;;;;;;;31.63;17.90;;;11.30;99.90;;;11.65;68.49;101248.84;5013864;28;20644;-71
2022/03/17 02:41:21;;;;;;;35.53;18.67;;;11.30;99.90;;;11.61;68.52;101247.38;5031253;28;20613;-72
2022/03/17 02:43:52;;;;;;;30.67;16.83;;;11.30;99.90;;;11.62;69.10;101249.06;5030323;28;21152;-71
2022/03/17 02:46:21;;;;;;;31.80;17.90;;;11.30;99.90;;;11.51;68.96;101247.16;5038579;28;20640;-71
2022/03/17 02:48:51;;;;;;;30.80;17.00;;;11.20;99.90;;;11.52;69.86;101243.59;5032377;28;21094;-71
2022/03/17 02:51:18;;;;;;;35.57;19.57;;;11.20;99.90;;;11.44;69.49;101245.03;5038539;28;20627;-72
2022/03/17 02:53:45;;;;;;;35.30;19.53;;;11.10;99.90;;;11.38;70.11;101254.13;5035994;28;21212;-72
2022/03/17 02:56:13;;;;;;;37.57;21.43;;;11.10;99.90;;;11.36;69.72;101257.78;5021511;28;21213;-72
2022/03/17 02:58:40;;;;;;;32.53;17.60;;;11.10;99.90;;;11.33;71.17;101258.81;5053985;28;20670;-72
2022/03/17 03:01:07;;;;;;;35.73;19.20;;;11.00;99.90;;;11.34;70.97;101254.44;5035568;28;21005;-72
2022/03/17 03:03:35;;;;;;;34.60;18.83;;;11.00;99.90;;;11.34;71.15;101254.44;5055999;28;20623;-72
2022/03/17 03:06:02;;;;;;;30.00;15.80;;;11.00;99.90;;;11.35;70.35;101250.91;5056617;28;20627;-71
2022/03/17 03:08:29;;;;;;;32.87;18.67;;;11.00;99.90;;;11.38;70.41;101255.91;5055230;28;20679;-70
2022/03/17 03:10:59;;;;;;;34.97;18.50;;;11.00;99.90;;;11.39;70.05;101252.38;5054874;28;21245;-72
2022/03/17 03:13:26;;;;;;;25.30;14.70;;;11.00;99.90;;;11.33;71.17;101250.16;5017932;28;21208;-72
2022/03/17 03:15:53;;;;;;;25.00;14.30;;;11.00;99.90;;;11.31;70.48;101252.84;5035446;28;21202;-72
2022/03/17 03:18:20;;;;;;;35.63;19.03;;;11.00;99.90;;;11.28;71.20;101266.13;5053737;28;20615;-73
2022/03/17 03:20:47;;;;;;;29.57;17.00;;;11.00;99.90;;;11.28;71.14;101263.50;5052699;28;20646;-70
2022/03/17 03:23:13;;;;;;;34.27;19.37;;;11.00;99.90;;;11.21;71.68;101267.44;5035913;28;20625;-73
2022/03/17 03:25:40;;;;;;;32.40;17.60;;;10.90;99.90;;;11.19;72.65;101271.09;5036237;28;20611;-72
2022/03/17 03:28:09;;;;;;;32.07;16.90;;;10.90;99.90;;;11.15;72.33;101270.47;5053136;28;20619;-72
2022/03/17 03:30:37;;;;;;;34.87;18.10;;;10.80;99.90;;;11.12;73.30;101260.19;5035039;28;21187;-72
2022/03/17 03:33:07;;;;;;;32.30;17.50;;;10.80;99.90;;;11.11;73.02;101268.16;5035657;28;20698;-72
2022/03/17 03:38:22;;;;;;;23.67;12.50;;;10.70;99.90;;;11.06;72.87;101263.22;5022563;28;20672;-73
2022/03/17 03:40:49;;;;;;;24.67;13.90;;;10.70;99.90;;;11.04;73.35;101264.25;4999456;28;20609;-71
2022/03/17 03:43:16;;;;;;;26.33;14.67;;;10.70;99.90;;;11.03;73.05;101268.63;5015496;28;21034;-72
2022/03/17 03:45:43;;;;;;;27.30;15.80;;;10.70;99.90;;;11.01;73.28;101261.84;5032805;28;20647;-72
2022/03/17 03:48:10;;;;;;;25.97;13.23;;;10.70;99.90;;;10.99;74.26;101279.38;5034049;28;20623;-72
2022/03/17 03:50:37;;;;;;;30.47;17.07;;;10.70;99.90;;;11.01;74.42;101274.91;5034461;28;20624;-72
2022/03/17 03:53:04;;;;;;;26.77;14.97;;;10.70;99.90;;;11.01;73.56;101278.31;5034682;28;20700;-72
2022/03/17 03:55:31;;;;;;;26.80;15.03;;;10.70;99.90;;;11.05;73.25;101272.00;5015967;28;20616;-72
2022/03/17 03:57:59;;;;;;;23.60;13.00;;;10.70;99.90;;;11.07;73.85;101274.50;5031967;28;20616;-73
2022/03/17 04:02:55;;;;;;;28.60;15.97;;;10.80;99.90;;;11.05;73.24;101279.84;5033058;28;20627;-72
2022/03/17 04:05:31;;;;;;;35.00;17.93;;;10.70;99.90;;;11.04;73.49;101280.75;5041045;28;20639;-72
2022/03/17 04:07:58;;;;;;;32.53;17.33;;;10.70;99.90;;;11.05;74.71;101284.22;5053495;28;20631;-72
2022/03/17 04:10:26;;;;;;;27.80;14.17;;;10.70;99.90;;;11.05;74.54;101292.03;5048931;28;20677;-72
2022/03/17 04:12:54;;;;;;;32.20;14.23;;;10.70;99.90;;;11.04;74.38;101292.97;5032925;28;20616;-72
2022/03/17 04:15:21;;;;;;;28.70;15.47;;;10.70;99.90;;;11.04;73.81;101300.78;5052968;28;20596;-73
2022/03/17 04:17:50;;;;;;;24.10;13.10;;;10.70;99.90;;;10.97;74.41;101292.50;5034612;28;20632;-73
2022/03/17 04:20:17;;;;;;;31.87;15.80;;;10.70;99.90;;;10.91;74.82;101301.56;5015077;28;20675;-73
2022/03/17 04:22:44;;;;;;;28.90;15.87;;;10.60;99.90;;;10.99;74.83;101305.50;5048474;28;20692;-72
2022/03/17 04:25:11;;;;;;;25.10;13.77;;;10.60;99.90;;;11.00;74.68;101297.56;5053188;28;20639;-72
2022/03/17 04:27:38;;;;;;;25.63;13.40;;;10.70;99.90;;;11.03;74.20;101296.53;5035471;28;20614;-72
2022/03/17 04:30:08;;;;;;;26.77;13.73;;;10.70;99.90;;;10.89;73.94;101293.00;5053533;28;20675;-72
2022/03/17 04:32:37;;;;;;;30.03;17.07;;;10.60;99.90;;;10.91;74.18;101301.56;5050847;28;21096;-72
2022/03/17 04:35:06;;;;;;;32.30;17.93;;;10.60;99.90;;;10.90;74.29;101312.94;5017522;28;20621;-72
2022/03/17 04:37:34;;;;;;;34.07;18.30;;;10.60;99.90;;;10.96;74.62;101314.34;5033003;28;20613;-72
2022/03/17 04:40:02;;;;;;;33.70;17.53;;;10.60;99.90;;;10.96;74.14;101321.34;5038139;23;20706;-68
2022/03/17 04:42:29;;;;;;;31.87;17.30;;;10.60;99.90;;;10.96;73.46;101314.34;5033925;28;20620;-70
2022/03/17 04:44:56;;;;;;;29.70;15.17;;;10.60;99.90;;;11.00;72.66;101323.66;5033715;28;20608;-68
2022/03/17 04:47:23;;;;;;;35.90;20.50;;;10.70;99.90;;;10.99;72.36;101318.53;5033581;28;20615;-68
2022/03/17 04:49:50;;;;;;;37.50;20.10;;;10.70;99.90;;;10.99;73.04;101342.03;5033152;28;20764;-68
2022/03/17 04:55:03;;;;;;;21.07;11.67;;;10.60;99.90;;;10.99;73.05;101336.81;5032648;28;22303;-68
2022/03/17 04:57:30;;;;;;;30.30;15.37;;;10.70;99.90;;;10.96;73.51;101337.00;5022002;28;20711;-68
2022/03/17 04:59:57;;;;;;;38.87;20.33;;;10.60;99.90;;;10.89;73.72;101341.75;5031469;28;20654;-68
2022/03/17 05:02:23;;;;;;;40.57;20.73;;;10.60;99.90;;;10.90;74.11;101354.72;5014633;28;20624;-70
2022/03/17 05:04:52;;;;;;;39.37;20.67;;;10.60;99.90;;;10.89;74.41;101353.06;5032142;28;20630;-69
2022/03/17 05:07:19;;;;;;;31.33;16.50;;;10.60;99.90;;;10.89;73.62;101358.28;5032881;28;20720;-68
2022/03/17 05:09:46;;;;;;;36.87;20.77;;;10.60;99.90;;;10.89;73.51;101368.72;5015282;28;20694;-70
2022/03/17 05:12:14;;;;;;;34.97;18.50;;;10.60;99.90;;;10.93;73.58;101370.22;5025924;28;20732;-68
2022/03/17 05:14:41;;;;;;;25.97;14.37;;;10.60;99.90;;;10.96;73.22;101365.72;5030482;28;20639;-68
2022/03/17 05:17:08;;;;;;;23.50;12.30;;;10.60;99.90;;;10.85;73.13;101358.56;5030335;28;20731;-68
2022/03/17 05:19:35;;;;;;;26.67;13.20;;;10.60;99.90;;;10.86;72.25;101363.66;5031914;28;20632;-68
2022/03/17 05:22:02;;;;;;;34.63;17.70;;;10.60;99.90;;;10.84;73.30;101354.25;5030326;28;21229;-69
2022/03/17 05:24:30;;;;;;;30.60;16.60;;;10.50;99.90;;;10.85;73.92;101375.06;5028657;28;20620;-68
2022/03/17 05:26:57;;;;;;;35.03;19.73;;;10.50;99.90;;;10.86;73.97;101378.53;5031773;28;20604;-68
2022/03/17 05:29:25;;;;;;;37.17;21.03;;;10.50;99.90;;;10.87;73.82;101378.41;5015206;28;20711;-68
2022/03/17 05:31:52;;;;;;;37.03;18.23;;;10.60;99.90;;;10.82;73.81;101388.28;5031753;28;20702;-68
2022/03/17 05:34:18;;;;;;;42.90;22.43;;;10.50;99.90;;;10.74;74.82;101374.88;5024368;28;20627;-69
2022/03/17 05:36:45;;;;;;;33.90;17.20;;;10.50;99.90;;;10.77;74.52;101381.69;5032535;28;20612;-68
2022/03/17 05:39:12;;;;;;;37.23;19.83;;;10.50;99.90;;;10.74;75.14;101374.88;5031546;28;20707;-70
2022/03/17 05:41:39;;;;;;;38.00;19.90;;;10.50;99.90;;;10.71;75.73;101384.69;5030821;28;20744;-68
2022/03/17 05:44:07;;;;;;;31.30;16.73;;;10.40;99.90;;;10.70;76.20;101381.22;5030977;28;20629;-69
2022/03/17 05:46:34;;;;;;;28.77;14.37;;;10.40;99.90;;;10.69;76.88;101384.75;5037237;28;20636;-69
2022/03/17 05:49:01;;;;;;;28.27;14.90;;;10.40;99.90;;;10.66;76.28;101392.78;5021035;28;21040;-68
2022/03/17 05:51:28;;;;;;;38.30;20.17;;;10.30;99.90;;;10.62;76.82;101396.50;5012925;28;20635;-68
2022/03/17 05:53:55;;;;;;;38.70;21.07;;;10.30;99.90;;;10.59;77.04;101406.28;5031048;28;20667;-69
2022/03/17 05:56:22;;;;;;;37.27;20.00;;;10.30;99.90;;;10.67;76.62;101412.72;5031041;28;20987;-69
2022/03/17 05:58:49;;;;;;;40.53;21.70;;;10.40;99.90;;;10.64;77.26;101420.75;5032135;28;20744;-70
2022/03/17 06:01:17;;;;;;;39.70;20.90;;;10.30;99.90;;;10.65;76.51;101421.56;5038129;28;20850;-69
2022/03/17 06:03:44;;;;;;;37.27;20.43;;;10.30;99.90;;;10.67;75.89;101417.09;5035296;28;20613;-68
2022/03/17 06:06:11;;;;;;;33.77;17.90;;;10.40;99.90;;;10.69;76.30;101423.09;5013027;28;20987;-68
2022/03/17 06:08:37;;;;;;;35.87;18.40;;;10.40;99.90;;;10.70;76.10;101429.97;5030830;28;20989;-68
2022/03/17 06:11:06;;;;;;;34.83;18.50;;;10.40;99.90;;;10.71;76.33;101432.47;5030957;28;20652;-68
2022/03/17 06:13:33;;;;;;;38.47;19.40;;;10.40;99.90;;;10.69;76.71;101439.56;5030534;28;20615;-69
2022/03/17 06:16:00;;;;;;;37.03;19.60;;;10.40;99.90;;;10.67;77.00;101445.78;5029908;28;20628;-67
2022/03/17 06:18:27;;;;;;;43.80;22.10;;;10.40;99.90;;;10.63;76.91;101452.13;5029449;28;20679;-68
2022/03/17 06:20:54;;;;;;;34.20;18.80;;;10.40;99.90;;;10.65;76.46;101445.03;5029442;28;20605;-68
2022/03/17 06:23:21;;;;;;;44.53;21.10;;;10.40;99.90;;;10.72;76.50;101447.22;5029626;28;20630;-68
2022/03/17 06:25:49;;;;;;;36.90;20.40;;;10.40;99.90;;;10.72;76.28;101446.38;5031785;28;20723;-68
2022/03/17 06:28:18;;;;;;;42.67;21.53;;;10.40;99.90;;;10.68;76.56;101453.56;5031791;28;20616;-68
2022/03/17 06:30:45;;;;;;;39.20;20.97;;;10.40;99.90;;;10.62;76.57;101453.91;5031070;28;20668;-68
2022/03/17 06:33:12;;;;;;;43.23;21.97;;;10.30;99.90;;;10.65;77.47;101458.94;5040516;28;21044;-69
2022/03/17 06:35:39;;;;;;;37.00;18.77;;;10.40;99.90;;;10.67;77.19;101462.31;5048847;28;21194;-69
2022/03/17 06:38:07;;;;;;;41.40;23.07;;;10.40;99.90;;;10.72;76.39;101460.28;5034787;28;20729;-68
2022/03/17 06:40:36;;;;;;;40.83;22.70;;;10.50;99.90;;;10.77;77.12;101466.06;5029644;28;20710;-69
2022/03/17 06:43:04;;;;;;;38.20;21.33;;;10.50;99.90;;;10.84;76.46;101480.41;5028641;28;20620;-68
2022/03/17 06:45:31;;;;;;;35.50;19.80;;;10.60;99.90;;;10.88;75.74;101475.88;5012863;28;20620;-68
2022/03/17 06:47:59;;;;;;;37.87;20.03;;;10.60;99.90;;;10.80;75.29;101485.91;5030522;28;20744;-69
2022/03/17 06:50:26;;;;;;;40.90;22.30;;;10.60;99.90;;;10.91;75.19;101486.97;5041865;28;20680;-68
2022/03/17 06:52:55;;;;;;;37.93;20.60;;;10.70;99.90;;;10.98;74.40;101491.81;5037284;28;20636;-70
2022/03/17 06:55:22;;;;;;;44.13;21.97;;;10.70;99.90;;;11.06;73.77;101495.63;5004893;28;20633;-69
2022/03/17 06:57:49;;;;;;;40.53;21.50;;;10.80;99.90;;;11.11;73.83;101496.22;5029584;28;20624;-69
2022/03/17 07:00:18;;;;;;;39.80;20.37;;;10.80;99.90;;;11.12;73.33;101495.25;5036413;28;20640;-69
2022/03/17 07:02:46;;;;;;;34.87;18.27;;;10.80;99.90;;;11.15;72.94;101496.84;5028267;28;20628;-70
2022/03/17 07:05:14;;;;;;;36.70;20.00;;;10.90;99.90;;;11.21;71.57;101494.72;5029305;28;20628;-69
2022/03/17 07:07:43;;;;;;;40.27;19.60;;;10.90;99.90;;;11.23;72.07;101492.00;5012732;28;20691;-69
2022/03/17 07:10:11;;;;;;;35.00;20.27;;;11.00;99.90;;;11.28;72.30;101500.41;5010999;28;20668;-69
2022/03/17 07:12:41;;;;;;;35.00;18.93;;;11.00;99.90;;;11.32;72.38;101500.13;5030145;28;20616;-69
2022/03/17 07:15:09;;;;;;;38.50;19.90;;;11.10;99.90;;;11.35;73.13;101504.34;5027007;28;21012;-69
2022/03/17 07:17:42;;;;;;;33.33;18.07;;;11.00;99.90;;;11.34;72.05;101502.66;5007985;28;20659;-69
2022/03/17 07:20:19;;;;;;;35.90;19.60;;;11.00;99.90;;;11.35;72.49;101509.56;5029202;28;20660;-70
2022/03/17 07:22:49;;;;;;;35.20;18.20;;;11.10;99.90;;;11.29;72.12;101515.97;5029853;28;21064;-68
2022/03/17 07:25:17;;;;;;;39.13;20.20;;;11.00;99.90;;;11.38;73.20;101512.81;5030132;28;20615;-68
2022/03/17 07:27:47;;;;;;;33.47;18.80;;;11.10;99.90;;;11.42;72.08;101516.06;5014118;28;20674;-69
2022/03/17 07:30:22;;;;;;;39.63;19.60;;;11.10;99.90;;;11.47;72.97;101527.94;5013312;28;20703;-69
2022/03/17 07:32:59;;;;;;;35.10;18.33;;;11.20;99.90;;;11.50;72.58;101525.13;5037518;28;20631;-69
2022/03/17 07:35:27;;;;;;;34.73;18.57;;;11.20;99.90;;;11.55;72.38;101535.28;5049945;28;20609;-69
2022/03/17 07:37:54;;;;;;;34.07;18.80;;;11.30;99.90;;;11.60;71.77;101534.09;5031246;28;20660;-69
2022/03/17 07:40:21;;;;;;;36.93;19.73;;;11.30;99.90;;;11.60;70.54;101538.47;5016458;28;20739;-71
2022/03/17 07:42:49;;;;;;;33.67;18.80;;;11.40;99.90;;;11.72;71.47;101542.13;5033066;28;20631;-69
2022/03/17 07:45:16;;;;;;;34.63;18.30;;;11.40;99.90;;;11.80;70.90;101550.34;5034671;28;20715;-69
2022/03/17 07:47:53;;;;;;;36.87;20.97;;;11.50;99.90;;;11.89;70.61;101552.38;5034452;28;20628;-69
2022/03/17 07:50:20;;;;;;;34.13;19.63;;;11.60;99.90;;;11.94;69.34;101556.38;5016344;28;20671;-69
2022/03/17 07:52:47;;;;;;;37.93;20.67;;;11.70;99.90;;;11.88;69.65;101564.63;5030577;28;20628;-69
2022/03/17 07:55:14;;;;;;;37.80;19.80;;;11.70;99.90;;;11.92;69.49;101565.25;5002961;28;20675;-69
2022/03/17 07:57:41;;;;;;;44.40;21.73;;;11.70;99.90;;;11.97;69.26;101577.09;5026381;28;20641;-70
2022/03/17 08:00:12;;;;;;;38.70;21.10;;;11.70;99.90;;;11.85;70.67;101572.66;5036429;28;20667;-70
2022/03/17 08:02:41;;;;;;;39.00;20.93;;;11.70;99.90;;;11.84;69.08;101570.13;5032225;28;20616;-68
2022/03/17 08:05:17;;;;;;;39.80;21.93;;;11.60;99.90;;;11.90;69.46;101572.38;5032473;28;21039;-71
2022/03/17 08:07:44;;;;;;;39.33;21.13;;;11.70;99.90;;;11.98;69.33;101570.94;5012774;28;21326;-69
2022/03/17 08:10:13;;;;;;;40.90;22.53;;;11.80;99.90;;;11.95;69.46;101575.50;5025713;28;20673;-69
2022/03/17 08:12:46;;;;;;;40.83;23.10;;;11.80;99.90;;;12.04;67.45;101573.19;5031944;28;20616;-68
2022/03/17 08:15:13;;;;;;;37.67;22.57;;;11.90;99.90;;;11.95;68.10;101578.97;5014026;28;20631;-69
2022/03/17 08:17:40;;;;;;;38.17;23.13;;;11.80;99.90;;;11.87;68.29;101583.00;5013960;28;20632;-70
2022/03/17 08:20:08;;;;;;;36.20;19.83;;;11.70;99.90;;;11.97;68.92;101589.38;5031783;28;21235;-69
2022/03/17 08:22:35;;;;;;;34.80;19.00;;;11.80;99.90;;;12.15;68.19;101588.19;5027805;28;20635;-69
2022/03/17 08:25:03;;;;;;;37.03;20.30;;;12.00;99.90;;;12.27;67.34;101590.88;5021625;28;21188;-71
2022/03/17 08:27:31;;;;;;;37.57;20.07;;;12.20;99.90;;;12.36;66.01;101585.06;5032318;28;20625;-72
2022/03/17 08:29:58;;;;;;;40.27;21.37;;;12.30;99.90;;;12.48;65.65;101593.06;5031619;28;20674;-70
2022/03/17 08:32:24;;;;;;;35.97;19.17;;;12.40;99.90;;;12.52;64.73;101587.53;5033894;28;20683;-69
2022/03/17 08:34:51;;;;;;;35.63;19.87;;;12.40;99.90;;;12.44;66.07;101592.41;5033742;28;20715;-70
2022/03/17 08:37:18;;;;;;;37.37;21.53;;;12.40;99.90;;;12.51;66.37;101598.06;5027489;28;21262;-70
2022/03/17 08:39:46;;;;;;;34.50;19.93;;;12.40;99.90;;;12.30;65.44;101609.00;5023889;28;20640;-68
2022/03/17 08:42:13;;;;;;;37.47;20.40;;;12.30;99.90;;;12.12;65.43;101612.75;5031236;28;20686;-70
2022/03/17 08:44:40;;;;;;;34.40;19.90;;;12.10;99.90;;;12.21;66.29;101609.56;5032150;28;20711;-70
2022/03/17 08:49:52;;;;;;;39.03;20.50;;;12.10;99.90;;;12.31;65.64;101612.44;5033027;28;21047;-70
2022/03/17 08:52:19;;;;;;;33.83;18.30;;;12.20;99.90;;;12.38;65.07;101604.13;5025965;28;20715;-67
2022/03/17 08:54:47;;;;;;;34.30;19.27;;;12.20;99.90;;;12.51;65.71;101605.94;5032373;28;21259;-67
2022/03/17 08:57:15;;;;;;;32.33;18.30;;;12.30;99.90;;;12.57;64.99;101608.16;5030836;28;20675;-67
2022/03/17 08:59:41;;;;;;;37.03;20.13;;;12.40;99.90;;;12.67;63.97;101622.34;5031140;28;20625;-66
2022/03/17 09:02:12;;;;;;;33.27;17.67;;;12.50;99.90;;;12.75;64.21;101622.69;5046123;28;20640;-68
2022/03/17 09:04:40;;;;;;;38.53;20.40;;;12.60;99.90;;;12.83;64.44;101630.88;5032206;28;20744;-70
2022/03/17 09:07:07;;;;;;;37.57;20.93;;;12.70;99.90;;;12.91;64.93;101633.81;5014861;28;20620;-68
2022/03/17 09:09:37;;;;;;;37.20;21.63;;;12.80;99.90;;;13.09;64.84;101640.50;5026323;28;21312;-68
2022/03/17 09:12:06;;;;;;;37.13;21.33;;;13.00;99.90;;;13.23;63.94;101640.41;5025509;28;20632;-69
2022/03/17 09:14:40;;;;;;;37.10;20.90;;;13.10;99.90;;;13.32;63.94;101642.44;5030081;28;20613;-73
2022/03/17 09:17:07;;;;;;;33.90;19.90;;;13.20;99.90;;;13.24;63.91;101639.50;5006003;28;20640;-68
2022/03/17 09:19:34;;;;;;;32.23;18.87;;;13.20;99.90;;;13.37;64.08;101645.59;5041178;28;21048;-68
2022/03/17 09:22:01;;;;;;;34.73;19.43;;;13.20;99.90;;;13.33;63.59;101644.09;5036805;28;20724;-69
2022/03/17 09:24:30;;;;;;;38.37;20.13;;;13.20;99.90;;;13.32;64.05;101652.91;5011393;28;20712;-69
2022/03/17 09:26:58;;;;;;;33.00;19.47;;;13.10;99.90;;;13.12;63.61;101656.84;5031201;28;21235;-73
2022/03/17 09:29:28;;;;;;;32.43;19.20;;;13.00;99.90;;;13.04;62.01;101655.66;5049967;28;21230;-69
2022/03/17 09:31:58;;;;;;;36.57;20.50;;;13.00;99.90;;;12.93;61.63;101652.88;5033923;28;20726;-69
2022/03/17 09:34:25;;;;;;;32.00;18.60;;;12.80;99.90;;;12.93;61.06;101652.88;5021383;28;21242;-68
2022/03/17 09:36:52;;;;;;;31.20;17.30;;;12.80;99.90;;;13.01;61.32;101663.72;5031270;28;20723;-69
2022/03/17 09:42:05;;;;;;;27.30;16.70;;;12.80;99.90;;;12.96;60.86;101666.66;5014148;28;20649;-69
2022/03/17 09:44:32;;;;;;;29.00;15.80;;;12.80;99.90;;;13.01;60.91;101676.84;5017070;28;21151;-69
2022/03/17 09:47:02;;;;;;;30.43;16.03;;;12.90;99.90;;;13.08;60.64;101685.97;5027337;28;20620;-69
2022/03/17 09:49:29;;;;;;;32.53;16.97;;;13.00;99.90;;;13.16;61.00;101681.91;5014733;28;20632;-69
2022/03/17 09:51:58;;;;;;;25.77;14.50;;;13.10;99.90;;;13.25;60.14;101685.72;5032208;28;20703;-74
2022/03/17 09:54:25;;;;;;;27.60;15.10;;;13.10;99.90;;;13.34;59.93;101679.88;5014798;28;20612;-69
2022/03/17 09:56:52;;;;;;;31.57;18.17;;;13.20;99.90;;;13.42;59.94;101688.03;5031563;28;20652;-69
2022/03/17 09:59:19;;;;;;;32.00;18.70;;;13.40;99.90;;;13.53;59.61;101688.16;5031022;28;20731;-69
2022/03/17 10:01:46;;;;;;;33.73;18.70;;;13.50;99.90;;;13.63;58.82;101688.41;5017197;28;20640;-69
2022/03/17 10:04:15;;;;;;;29.50;16.07;;;13.60;99.90;;;13.70;59.50;101700.13;5021200;28;20720;-69
2022/03/17 10:06:42;;;;;;;29.17;16.97;;;13.70;99.90;;;13.78;59.31;101703.91;5027374;28;20629;-69
2022/03/17 10:09:10;;;;;;;34.27;18.57;;;13.80;99.90;;;13.75;59.14;101705.91;5030545;28;20656;-69
2022/03/17 10:11:37;;;;;;;31.80;19.60;;;13.80;99.90;;;13.67;58.35;101702.97;5029595;28;20751;-68
2022/03/17 10:14:06;;;;;;;31.30;18.83;;;13.70;99.90;;;13.62;58.52;101708.53;5027181;28;20652;-70
2022/03/17 10:16:33;;;;;;;30.90;17.57;;;13.60;99.90;;;13.57;58.94;101717.63;5021814;28;20631;-69
2022/03/17 10:19:12;;;;;;;34.43;18.17;;;13.50;99.90;;;13.52;58.73;101720.56;5010429;28;20788;-69
2022/03/17 10:21:41;;;;;;;30.70;17.03;;;13.40;99.90;;;13.67;58.64;101719.53;5007548;28;20822;-68
2022/03/17 10:24:08;;;;;;;28.60;16.97;;;13.60;99.90;;;13.73;58.73;101713.91;5030221;28;20708;-69